createdAt,value
2023-09-07T00:00:19.491Z,102227.47
2023-09-07T00:06:30.057Z,102231.19
2023-09-07T00:08:57.965Z,102228.66
2023-09-07T00:11:25.876Z,102224.41
2023-09-07T00:13:53.842Z,102230.34
2023-09-07T00:16:21.856Z,102228.34
2023-09-07T00:18:50.517Z,102232.34
2023-09-07T00:21:18.575Z,102230.91
2023-09-07T00:23:47.910Z,102232.63
2023-09-07T00:26:16.239Z,102225.53
2023-09-07T00:28:44.269Z,102225.53
2023-09-07T00:31:12.302Z,102221.56
2023-09-07T00:33:40.415Z,102229.50
2023-09-07T00:36:08.378Z,102225.53
2023-09-07T00:38:36.338Z,102225.81
2023-09-07T00:41:05.738Z,102224.41
2023-09-07T00:43:33.679Z,102226.94
2023-09-07T00:46:01.707Z,102227.22
2023-09-07T00:48:29.995Z,102227.16
2023-09-07T00:50:58.232Z,102223.81
2023-09-07T00:53:26.491Z,102223.47
2023-09-07T00:55:54.454Z,102220.31
2023-09-07T00:58:23.953Z,102225.41
2023-09-07T01:00:52.137Z,102221.38
2023-09-07T01:03:20.148Z,102221.28
2023-09-07T01:05:53.233Z,102224.78
2023-09-07T01:08:25.948Z,102217.41
2023-09-07T01:10:54.828Z,102220.25
2023-09-07T01:13:24.267Z,102217.34
2023-09-07T01:15:52.706Z,102217.13
2023-09-07T01:18:25.121Z,102214.88
2023-09-07T01:20:54.880Z,102214.88
2023-09-07T01:23:24.704Z,102218.00
2023-09-07T01:25:53.561Z,102216.34
2023-09-07T01:28:22.689Z,102214.38
2023-09-07T01:30:50.640Z,102214.31
2023-09-07T01:33:18.603Z,102217.75
2023-09-07T01:35:47.574Z,102218.31
2023-09-07T01:38:15.608Z,102217.44
2023-09-07T01:40:44.926Z,102215.75
2023-09-07T01:43:12.878Z,102210.59
2023-09-07T01:45:40.921Z,102212.59
2023-09-07T01:48:10.783Z,102210.53
2023-09-07T01:50:38.812Z,102214.13
2023-09-07T01:53:06.794Z,102218.72
2023-09-07T01:55:34.878Z,102210.53
2023-09-07T01:58:04.442Z,102209.75
2023-09-07T02:00:32.375Z,102213.91
2023-09-07T02:03:00.463Z,102217.63
2023-09-07T02:05:28.543Z,102210.84
2023-09-07T02:07:56.587Z,102211.63
2023-09-07T02:10:25.929Z,102219.03
2023-09-07T02:12:53.018Z,102217.91
2023-09-07T02:15:22.425Z,102226.13
2023-09-07T02:17:50.568Z,102219.00
2023-09-07T02:20:20.086Z,102217.28
2023-09-07T02:22:48.166Z,102217.75
2023-09-07T02:25:16.147Z,102216.59
2023-09-07T02:27:44.259Z,102226.81
2023-09-07T02:30:12.764Z,102233.03
2023-09-07T02:32:45.118Z,102234.09
2023-09-07T02:35:13.142Z,102229.59
2023-09-07T02:37:41.067Z,102231.06
2023-09-07T02:40:10.766Z,102230.19
2023-09-07T02:42:38.712Z,102235.22
2023-09-07T02:45:07.776Z,102229.03
2023-09-07T02:47:35.976Z,102228.19
2023-09-07T02:50:06.604Z,102238.94
2023-09-07T02:52:34.528Z,102239.19
2023-09-07T02:55:02.526Z,102245.09
2023-09-07T02:57:30.484Z,102243.63
2023-09-07T02:59:58.539Z,102245.00
2023-09-07T03:02:26.741Z,102239.66
2023-09-07T03:04:56.273Z,102245.31
2023-09-07T03:07:25.600Z,102239.38
2023-09-07T03:09:54.247Z,102244.78
2023-09-07T03:12:22.730Z,102243.09
2023-09-07T03:14:51.550Z,102241.91
2023-09-07T03:17:19.635Z,102245.25
2023-09-07T03:19:47.756Z,102240.72
2023-09-07T03:22:16.124Z,102242.69
2023-09-07T03:24:45.805Z,102242.34
2023-09-07T03:27:13.851Z,102242.94
2023-09-07T03:29:41.806Z,102245.16
2023-09-07T03:32:09.940Z,102245.63
2023-09-07T03:34:38.029Z,102249.50
2023-09-07T03:37:07.505Z,102253.41
2023-09-07T03:39:35.687Z,102252.91
2023-09-07T03:42:05.241Z,102254.56
2023-09-07T03:44:33.199Z,102252.56
2023-09-07T03:47:03.226Z,102261.06
2023-09-07T03:49:31.330Z,102257.03
2023-09-07T03:51:59.346Z,102259.00
2023-09-07T03:54:27.303Z,102266.59
2023-09-07T03:56:55.385Z,102265.03
2023-09-07T03:59:24.742Z,102262.00
2023-09-07T04:01:52.828Z,102267.50
2023-09-07T04:04:21.258Z,102268.63
2023-09-07T04:06:49.670Z,102269.19
2023-09-07T04:09:17.606Z,102260.59
2023-09-07T04:15:35.599Z,102262.78
2023-09-07T04:18:03.617Z,102265.22
2023-09-07T04:20:31.600Z,102259.84
2023-09-07T04:22:59.546Z,102256.38
2023-09-07T04:25:27.757Z,102267.94
2023-09-07T04:27:57.812Z,102269.66
2023-09-07T04:30:26.031Z,102265.94
2023-09-07T04:32:55.463Z,102267.84
2023-09-07T04:35:23.563Z,102276.13
2023-09-07T04:37:51.612Z,102266.59
2023-09-07T04:40:19.722Z,102271.75
2023-09-07T04:42:47.662Z,102275.09
2023-09-07T04:45:15.800Z,102274.13
2023-09-07T04:47:43.775Z,102265.94
2023-09-07T04:50:14.659Z,102273.59
2023-09-07T04:52:42.682Z,102268.69
2023-09-07T04:55:11.027Z,102277.06
2023-09-07T04:57:39.289Z,102269.47
2023-09-07T05:00:09.013Z,102276.09
2023-09-07T05:02:41.509Z,102273.34
2023-09-07T05:05:10.274Z,102280.50
2023-09-07T05:07:39.604Z,102283.25
2023-09-07T05:10:09.836Z,102278.16
2023-09-07T05:12:37.976Z,102278.78
2023-09-07T05:15:07.942Z,102280.47
2023-09-07T05:17:36.038Z,102282.47
2023-09-07T05:20:04.783Z,102282.25
2023-09-07T05:22:35.510Z,102282.78
2023-09-07T05:25:05.315Z,102284.75
2023-09-07T05:27:33.297Z,102286.06
2023-09-07T05:30:01.257Z,102284.22
2023-09-07T05:32:29.215Z,102286.47
2023-09-07T05:34:57.159Z,102291.06
2023-09-07T05:37:25.137Z,102294.56
2023-09-07T05:39:53.072Z,102294.56
2023-09-07T05:42:22.526Z,102296.84
2023-09-07T05:44:50.464Z,102304.91
2023-09-07T05:47:18.852Z,102307.53
2023-09-07T05:49:46.985Z,102309.03
2023-09-07T05:52:15.008Z,102302.31
2023-09-07T05:54:43.023Z,102304.88
2023-09-07T05:57:11.110Z,102305.84
2023-09-07T05:59:40.408Z,102305.97
2023-09-07T06:02:09.031Z,102314.47
2023-09-07T06:04:37.325Z,102308.03
2023-09-07T06:07:05.602Z,102316.53
2023-09-07T06:09:33.571Z,102312.97
2023-09-07T06:12:01.533Z,102314.75
2023-09-07T06:14:29.525Z,102320.47
2023-09-07T06:16:58.968Z,102310.88
2023-09-07T06:19:27.013Z,102309.25
2023-09-07T06:21:54.990Z,102313.56
2023-09-07T06:24:23.011Z,102307.09
2023-09-07T06:26:51.117Z,102313.38
2023-09-07T06:29:19.062Z,102307.09
2023-09-07T06:31:47.135Z,102312.50
2023-09-07T06:34:16.616Z,102310.88
2023-09-07T06:36:48.320Z,102310.63
2023-09-07T06:39:16.629Z,102321.09
2023-09-07T06:41:47.634Z,102313.47
2023-09-07T06:44:18.508Z,102320.38
2023-09-07T06:46:46.582Z,102314.72
2023-09-07T06:49:16.257Z,102321.59
2023-09-07T06:51:44.221Z,102320.19
2023-09-07T06:54:12.221Z,102321.06
2023-09-07T06:56:40.194Z,102320.28
2023-09-07T06:59:08.148Z,102327.69
2023-09-07T07:01:36.724Z,102317.22
2023-09-07T07:04:05.132Z,102323.78
2023-09-07T07:06:34.636Z,102331.44
2023-09-07T07:09:02.569Z,102331.47
2023-09-07T07:11:30.545Z,102329.22
2023-09-07T07:13:58.540Z,102336.66
2023-09-07T07:16:26.637Z,102338.41
2023-09-07T07:18:54.651Z,102344.38
2023-09-07T07:21:22.643Z,102345.50
2023-09-07T07:23:51.985Z,102342.41
2023-09-07T07:26:19.943Z,102346.97
2023-09-07T07:28:47.891Z,102346.41
2023-09-07T07:31:15.931Z,102350.13
2023-09-07T07:33:43.941Z,102344.19
2023-09-07T07:36:11.961Z,102340.22
2023-09-07T07:38:40.538Z,102339.06
2023-09-07T07:41:09.987Z,102335.13
2023-09-07T07:43:38.006Z,102346.50
2023-09-07T07:46:06.227Z,102338.81
2023-09-07T07:48:36.398Z,102346.19
2023-09-07T07:51:05.334Z,102345.97
2023-09-07T07:53:33.729Z,102331.19
2023-09-07T07:56:01.994Z,102345.94
2023-09-07T07:58:31.496Z,102353.06
2023-09-07T08:01:00.147Z,102342.81
2023-09-07T08:03:28.466Z,102344.22
2023-09-07T08:05:56.579Z,102351.59
2023-09-07T08:08:24.700Z,102346.75
2023-09-07T08:10:52.864Z,102346.72
2023-09-07T08:13:21.066Z,102347.00
2023-09-07T08:15:50.487Z,102342.16
2023-09-07T08:18:18.823Z,102340.41
2023-09-07T08:20:46.961Z,102342.59
2023-09-07T08:23:14.930Z,102345.69
2023-09-07T08:25:47.656Z,102341.97
2023-09-07T08:28:17.110Z,102344.47
2023-09-07T08:30:45.105Z,102355.53
2023-09-07T08:33:14.573Z,102350.41
2023-09-07T08:35:45.349Z,102353.78
2023-09-07T08:38:14.297Z,102349.22
2023-09-07T08:40:43.021Z,102347.69
2023-09-07T08:43:13.426Z,102343.69
2023-09-07T08:45:44.687Z,102345.84
2023-09-07T08:48:16.644Z,102346.88
2023-09-07T08:50:45.158Z,102340.28
2023-09-07T08:53:13.097Z,102343.41
2023-09-07T08:55:41.110Z,102333.56
2023-09-07T08:58:09.049Z,102336.81
2023-09-07T09:00:37.118Z,102339.44
2023-09-07T09:03:06.050Z,102343.97
2023-09-07T09:05:36.794Z,102335.81
2023-09-07T09:08:06.933Z,102341.28
2023-09-07T09:10:35.852Z,102348.03
2023-09-07T09:13:03.965Z,102342.19
2023-09-07T09:15:31.931Z,102339.13
2023-09-07T09:18:00.022Z,102335.97
2023-09-07T09:20:28.667Z,102336.53
2023-09-07T09:22:58.387Z,102329.31
2023-09-07T09:25:27.839Z,102325.44
2023-09-07T09:27:55.789Z,102321.13
2023-09-07T09:30:23.725Z,102331.81
2023-09-07T09:32:52.254Z,102331.41
2023-09-07T09:35:20.362Z,102327.19
2023-09-07T09:37:49.720Z,102324.97
2023-09-07T09:40:19.514Z,102326.56
2023-09-07T09:42:47.616Z,102316.47
2023-09-07T09:45:15.581Z,102319.53
2023-09-07T09:47:44.497Z,102318.25
2023-09-07T09:50:13.794Z,102305.75
2023-09-07T09:52:41.902Z,102310.75
2023-09-07T09:55:14.184Z,102296.31
2023-09-07T09:57:43.767Z,102297.09
2023-09-07T10:00:22.659Z,102308.97
2023-09-07T10:02:56.831Z,102306.63
2023-09-07T10:05:27.196Z,102308.06
2023-09-07T10:07:55.598Z,102309.72
2023-09-07T10:10:23.719Z,102303.59
2023-09-07T10:12:55.806Z,102300.56
2023-09-07T10:15:28.521Z,102295.69
2023-09-07T10:18:07.155Z,102293.72
2023-09-07T10:20:50.273Z,102302.06
2023-09-07T10:23:18.350Z,102291.50
2023-09-07T10:25:50.513Z,102292.63
2023-09-07T10:28:25.245Z,102287.28
2023-09-07T10:31:04.707Z,102288.84
2023-09-07T10:33:33.676Z,102283.66
2023-09-07T10:36:02.651Z,102281.63
2023-09-07T10:38:30.666Z,102285.34
2023-09-07T10:40:59.897Z,102280.56
2023-09-07T10:43:30.143Z,102286.34
2023-09-07T10:45:59.941Z,102281.16
2023-09-07T10:48:28.409Z,102281.50
2023-09-07T10:50:56.562Z,102276.09
2023-09-07T10:53:29.345Z,102278.81
2023-09-07T10:55:59.700Z,102265.78
2023-09-07T10:58:30.932Z,102273.56
2023-09-07T11:00:59.904Z,102252.91
2023-09-07T11:03:29.121Z,102258.66
2023-09-07T11:05:59.103Z,102259.19
2023-09-07T11:08:27.283Z,102252.22
2023-09-07T11:10:55.227Z,102251.84
2023-09-07T11:13:24.214Z,102250.19
2023-09-07T11:15:56.060Z,102242.38
2023-09-07T11:18:24.572Z,102252.53
2023-09-07T11:20:53.741Z,102245.22
2023-09-07T11:23:23.033Z,102248.59
2023-09-07T11:25:53.254Z,102244.00
2023-09-07T11:28:23.883Z,102236.91
2023-09-07T11:30:54.402Z,102244.31
2023-09-07T11:33:23.513Z,102237.06
2023-09-07T11:35:51.658Z,102224.69
2023-09-07T11:38:20.413Z,102235.75
2023-09-07T11:40:48.905Z,102233.31
2023-09-07T11:43:18.048Z,102229.38
2023-09-07T11:45:48.097Z,102227.81
2023-09-07T11:48:17.537Z,102226.59
2023-09-07T11:50:45.624Z,102217.00
2023-09-07T11:53:13.771Z,102213.53
2023-09-07T11:55:44.501Z,102218.00
2023-09-07T11:58:12.430Z,102213.03
2023-09-07T12:00:42.068Z,102217.28
2023-09-07T12:03:10.065Z,102222.78
2023-09-07T12:05:41.064Z,102219.41
2023-09-07T12:08:09.139Z,102213.00
2023-09-07T12:10:37.102Z,102218.84
2023-09-07T12:13:05.388Z,102217.78
2023-09-07T12:15:33.387Z,102204.78
2023-09-07T12:18:01.753Z,102208.22
2023-09-07T12:20:29.910Z,102197.47
2023-09-07T12:22:59.238Z,102199.09
2023-09-07T12:25:27.722Z,102202.03
2023-09-07T12:27:56.031Z,102190.44
2023-09-07T12:30:25.357Z,102194.63
2023-09-07T12:32:53.835Z,102194.97
2023-09-07T12:35:22.251Z,102191.00
2023-09-07T12:37:50.202Z,102190.59
2023-09-07T12:40:19.541Z,102186.22
2023-09-07T12:42:48.534Z,102187.63
2023-09-07T12:45:16.720Z,102186.41
2023-09-07T12:47:44.819Z,102183.66
2023-09-07T12:50:13.331Z,102173.34
2023-09-07T12:52:41.370Z,102182.38
2023-09-07T12:55:09.874Z,102174.34
2023-09-07T12:57:39.230Z,102173.03
2023-09-07T13:00:08.465Z,102164.00
2023-09-07T13:02:36.536Z,102171.44
2023-09-07T13:05:06.540Z,102160.69
2023-09-07T13:07:35.652Z,102161.22
2023-09-07T13:10:05.364Z,102161.00
2023-09-07T13:12:33.767Z,102157.28
2023-09-07T13:15:03.726Z,102154.34
2023-09-07T13:17:32.018Z,102153.06
2023-09-07T13:19:59.986Z,102156.66
2023-09-07T13:22:27.970Z,102154.31
2023-09-07T13:24:55.992Z,102150.59
2023-09-07T13:27:23.975Z,102140.22
2023-09-07T13:29:51.995Z,102133.38
2023-09-07T13:32:21.418Z,102147.50
2023-09-07T13:34:49.392Z,102145.09
2023-09-07T13:37:17.395Z,102140.22
2023-09-07T13:39:45.404Z,102141.81
2023-09-07T13:42:13.386Z,102132.19
2023-09-07T13:44:41.702Z,102135.84
2023-09-07T13:47:09.977Z,102135.47
2023-09-07T13:49:39.360Z,102134.97
2023-09-07T13:52:07.857Z,102137.69
2023-09-07T13:54:35.799Z,102129.94
2023-09-07T13:57:03.778Z,102126.88
2023-09-07T13:59:34.449Z,102133.75
2023-09-07T14:02:02.541Z,102125.47
2023-09-07T14:04:32.157Z,102126.00
2023-09-07T14:07:01.529Z,102129.63
2023-09-07T14:09:29.694Z,102124.59
2023-09-07T14:11:57.647Z,102128.13
2023-09-07T14:14:25.641Z,102125.94
2023-09-07T14:16:58.082Z,102114.94
2023-09-07T14:19:28.633Z,102115.94
2023-09-07T14:21:56.583Z,102115.38
2023-09-07T14:24:26.129Z,102118.28
2023-09-07T14:26:53.241Z,102113.56
2023-09-07T14:29:21.253Z,102108.06
2023-09-07T14:31:49.193Z,102115.25
2023-09-07T14:34:17.142Z,102107.53
2023-09-07T14:36:45.148Z,102107.44
2023-09-07T14:39:13.366Z,102110.16
2023-09-07T14:41:44.367Z,102102.63
2023-09-07T14:44:12.297Z,102101.09
2023-09-07T14:46:40.342Z,102112.34
2023-09-07T14:49:08.335Z,102096.19
2023-09-07T14:51:36.283Z,102107.03
2023-09-07T14:54:04.227Z,102094.50
2023-09-07T14:56:36.389Z,102097.81
2023-09-07T14:59:05.931Z,102099.00
2023-09-07T15:01:34.173Z,102098.28
2023-09-07T15:04:02.221Z,102091.09
2023-09-07T15:06:32.082Z,102097.31
2023-09-07T15:09:00.821Z,102101.34
2023-09-07T15:11:28.901Z,102104.53
2023-09-07T15:13:56.979Z,102089.41
2023-09-07T15:16:26.584Z,102094.28
2023-09-07T15:18:54.809Z,102087.81
2023-09-07T15:21:23.069Z,102086.34
2023-09-07T15:23:51.002Z,102086.41
2023-09-07T15:26:19.011Z,102078.69
2023-09-07T15:28:47.058Z,102074.28
2023-09-07T15:31:15.093Z,102079.34
2023-09-07T15:33:44.506Z,102075.44
2023-09-07T15:36:14.683Z,102077.03
2023-09-07T15:38:42.905Z,102077.47
2023-09-07T15:41:10.956Z,102076.81
2023-09-07T15:43:38.976Z,102084.59
2023-09-07T15:46:07.016Z,102071.75
2023-09-07T15:48:35.402Z,102070.78
2023-09-07T15:51:05.049Z,102070.00
2023-09-07T15:53:34.742Z,102064.81
2023-09-07T15:56:03.001Z,102065.78
2023-09-07T15:58:31.422Z,102058.47
2023-09-07T16:00:59.776Z,102062.00
2023-09-07T16:03:27.790Z,102059.69
2023-09-07T16:05:55.758Z,102053.44
2023-09-07T16:08:26.858Z,102046.59
2023-09-07T16:10:56.899Z,102058.69
2023-09-07T16:13:24.917Z,102058.16
2023-09-07T16:15:52.895Z,102048.03
2023-09-07T16:18:21.357Z,102049.94
2023-09-07T16:20:50.354Z,102049.25
2023-09-07T16:23:18.397Z,102055.81
2023-09-07T16:25:48.933Z,102050.81
2023-09-07T16:28:17.972Z,102047.53
2023-09-07T16:30:47.286Z,102052.09
2023-09-07T16:33:15.296Z,102045.19
2023-09-07T16:35:43.617Z,102045.63
2023-09-07T16:38:11.687Z,102041.13
2023-09-07T16:40:40.185Z,102046.13
2023-09-07T16:43:09.616Z,102044.81
2023-09-07T16:45:37.643Z,102037.47
2023-09-07T16:48:06.277Z,102039.53
2023-09-07T16:50:34.322Z,102039.78
2023-09-07T16:53:02.312Z,102039.25
2023-09-07T16:55:30.592Z,102047.00
2023-09-07T16:57:58.714Z,102043.03
2023-09-07T17:00:28.061Z,102041.31
2023-09-07T17:02:56.181Z,102043.75
2023-09-07T17:05:24.418Z,102041.28
2023-09-07T17:07:52.368Z,102039.81
2023-09-07T17:10:20.486Z,102041.25
2023-09-07T17:12:48.422Z,102037.81
2023-09-07T17:15:16.493Z,102045.25
2023-09-07T17:17:45.870Z,102038.84
2023-09-07T17:20:14.825Z,102037.19
2023-09-07T17:22:46.862Z,102034.31
2023-09-07T17:25:14.993Z,102044.75
2023-09-07T17:27:43.770Z,102034.00
2023-09-07T17:30:12.208Z,102037.81
2023-09-07T17:32:40.410Z,102027.78
2023-09-07T17:35:10.180Z,102030.47
2023-09-07T17:37:38.143Z,102040.16
2023-09-07T17:40:07.370Z,102037.78
2023-09-07T17:42:35.468Z,102041.00
2023-09-07T17:45:03.404Z,102034.94
2023-09-07T17:47:31.441Z,102044.00
2023-09-07T17:49:59.510Z,102039.44
2023-09-07T17:52:28.877Z,102032.34
2023-09-07T17:54:56.876Z,102042.38
2023-09-07T17:57:24.873Z,102047.13
2023-09-07T17:59:53.418Z,102046.91
2023-09-07T18:02:23.491Z,102039.91
2023-09-07T18:04:52.496Z,102051.41
2023-09-07T18:07:20.576Z,102049.88
2023-09-07T18:09:49.957Z,102046.34
2023-09-07T18:12:17.930Z,102048.69
2023-09-07T18:14:46.032Z,102041.63
2023-09-07T18:17:13.994Z,102052.25
2023-09-07T18:19:41.972Z,102057.81
2023-09-07T18:22:11.086Z,102056.25
2023-09-07T18:24:39.421Z,102063.28
2023-09-07T18:27:08.908Z,102064.53
2023-09-07T18:29:36.858Z,102064.44
2023-09-07T18:32:05.033Z,102060.09
2023-09-07T18:34:34.740Z,102067.78
2023-09-07T18:37:02.838Z,102060.72
2023-09-07T18:39:30.849Z,102059.22
2023-09-07T18:41:59.052Z,102059.84
2023-09-07T18:44:29.008Z,102063.44
2023-09-07T18:46:57.008Z,102056.94
2023-09-07T18:49:25.712Z,102054.75
2023-09-07T18:51:53.645Z,102055.56
2023-09-07T18:54:21.635Z,102051.78
2023-09-07T18:56:49.779Z,102062.69
2023-09-07T18:59:18.542Z,102066.94
2023-09-07T19:01:49.890Z,102057.16
2023-09-07T19:04:17.922Z,102056.47
2023-09-07T19:06:45.871Z,102061.97
2023-09-07T19:09:13.855Z,102057.63
2023-09-07T19:11:41.798Z,102060.63
2023-09-07T19:14:09.767Z,102057.13
2023-09-07T19:16:37.835Z,102058.81
2023-09-07T19:19:07.456Z,102057.41
2023-09-07T19:21:35.887Z,102061.03
2023-09-07T19:24:04.052Z,102048.31
2023-09-07T19:26:33.488Z,102050.22
2023-09-07T19:29:04.516Z,102054.66
2023-09-07T19:31:33.543Z,102057.44
2023-09-07T19:34:02.494Z,102060.84
2023-09-07T19:36:32.865Z,102056.09
2023-09-07T19:39:01.795Z,102056.22
2023-09-07T19:41:30.473Z,102048.19
2023-09-07T19:43:59.025Z,102050.25
2023-09-07T19:46:27.095Z,102049.84
2023-09-07T19:48:55.552Z,102054.09
2023-09-07T19:51:24.557Z,102055.41
2023-09-07T19:53:53.939Z,102055.88
2023-09-07T19:56:24.906Z,102061.41
2023-09-07T19:58:54.478Z,102065.25
2023-09-07T20:01:23.288Z,102061.94
2023-09-07T20:03:54.704Z,102060.31
2023-09-07T20:06:26.133Z,102059.22
2023-09-07T20:08:55.919Z,102065.13
2023-09-07T20:11:23.988Z,102055.91
2023-09-07T20:13:52.075Z,102063.44
2023-09-07T20:16:20.181Z,102062.28
2023-09-07T20:18:48.235Z,102065.50
2023-09-07T20:21:16.317Z,102068.75
2023-09-07T20:23:44.369Z,102072.28
2023-09-07T20:26:14.075Z,102071.06
2023-09-07T20:28:44.010Z,102067.50
2023-09-07T20:31:12.369Z,102070.38
2023-09-07T20:33:40.530Z,102074.69
2023-09-07T20:36:09.130Z,102065.66
2023-09-07T20:38:37.880Z,102072.91
2023-09-07T20:41:06.224Z,102067.81
2023-09-07T20:43:38.808Z,102065.88
2023-09-07T20:46:07.830Z,102071.53
2023-09-07T20:48:36.199Z,102073.16
2023-09-07T20:51:05.850Z,102069.53
2023-09-07T20:53:34.210Z,102072.19
2023-09-07T20:56:02.188Z,102066.00
2023-09-07T20:58:30.356Z,102069.28
2023-09-07T21:01:03.678Z,102067.34
2023-09-07T21:03:32.534Z,102065.16
2023-09-07T21:06:00.972Z,102059.78
2023-09-07T21:08:29.110Z,102055.00
2023-09-07T21:10:57.138Z,102057.63
2023-09-07T21:13:25.248Z,102055.34
2023-09-07T21:15:53.211Z,102049.66
2023-09-07T21:18:22.707Z,102051.34
2023-09-07T21:20:50.684Z,102060.19
2023-09-07T21:23:18.668Z,102058.03
2023-09-07T21:25:46.670Z,102054.72
2023-09-07T21:28:15.503Z,102050.78
2023-09-07T21:30:43.537Z,102060.50
2023-09-07T21:33:11.587Z,102053.47
2023-09-07T21:35:40.988Z,102041.66
2023-09-07T21:38:08.997Z,102041.97
2023-09-07T21:40:37.374Z,102050.59
2023-09-07T21:43:05.925Z,102051.16
2023-09-07T21:45:33.979Z,102045.81
2023-09-07T21:48:02.024Z,102048.94
2023-09-07T21:50:30.036Z,102043.28
2023-09-07T21:52:59.426Z,102049.59
2023-09-07T21:55:27.469Z,102047.69
2023-09-07T21:57:55.463Z,102048.28
2023-09-07T22:00:23.551Z,102053.72
2023-09-07T22:02:52.151Z,102054.81
2023-09-07T22:05:20.384Z,102053.50
2023-09-07T22:07:48.453Z,102043.63
2023-09-07T22:10:17.831Z,102041.09
2023-09-07T22:12:45.845Z,102044.88
2023-09-07T22:15:13.911Z,102051.69
2023-09-07T22:17:44.312Z,102040.59
2023-09-07T22:20:12.585Z,102046.59
2023-09-07T22:22:40.611Z,102039.19
2023-09-07T22:25:09.297Z,102051.16
2023-09-07T22:27:38.701Z,102046.13
2023-09-07T22:30:08.324Z,102034.19
2023-09-07T22:32:36.397Z,102032.97
2023-09-07T22:35:05.903Z,102029.22
2023-09-07T22:37:33.899Z,102030.66
2023-09-07T22:40:01.885Z,102026.38
2023-09-07T22:42:29.844Z,102037.81
2023-09-07T22:44:59.245Z,102029.00
2023-09-07T22:47:27.303Z,102033.03
2023-09-07T22:49:55.389Z,102040.41
2023-09-07T22:52:23.405Z,102040.97
2023-09-07T22:54:51.388Z,102041.84
2023-09-07T22:57:19.444Z,102048.13
2023-09-07T22:59:47.573Z,102043.88
2023-09-07T23:02:17.009Z,102043.88
2023-09-07T23:04:45.190Z,102045.03
2023-09-07T23:07:14.447Z,102044.19
2023-09-07T23:09:43.938Z,102029.16
2023-09-07T23:12:12.233Z,102033.44
2023-09-07T23:14:40.647Z,102029.75
2023-09-07T23:17:08.821Z,102027.75
2023-09-07T23:19:38.322Z,102023.81
2023-09-07T23:22:06.325Z,102032.59
2023-09-07T23:24:34.361Z,102019.53
2023-09-07T23:27:02.420Z,102020.09
2023-09-07T23:29:30.473Z,102029.47
2023-09-07T23:31:58.490Z,102014.44
2023-09-07T23:34:28.358Z,102021.25
2023-09-07T23:36:58.697Z,102021.25
2023-09-07T23:39:26.748Z,102024.66
2023-09-07T23:41:54.728Z,102025.75
2023-09-07T23:44:22.956Z,102025.22
2023-09-07T23:46:50.913Z,102022.09
2023-09-07T23:49:18.961Z,102008.78
2023-09-07T23:51:46.955Z,102013.31
2023-09-07T23:54:17.293Z,102021.81
2023-09-07T23:56:45.241Z,102016.16
2023-09-07T23:59:13.195Z,102014.72
